createdAt,value
2023-02-22T00:00:27.781Z,25.48
2023-02-22T00:02:52.088Z,27.33
2023-02-22T00:05:14.901Z,25.73
2023-02-22T00:07:35.596Z,27.67
2023-02-22T00:09:56.452Z,29.38
2023-02-22T00:12:16.756Z,30.42
2023-02-22T00:14:36.796Z,28.98
2023-02-22T00:16:59.046Z,26.13
2023-02-22T00:19:18.922Z,31.23
2023-02-22T00:21:39.999Z,32.95
2023-02-22T00:23:59.683Z,29.02
2023-02-22T00:26:22.692Z,30.45
2023-02-22T00:28:42.612Z,27.10
2023-02-22T00:31:06.016Z,26.70
2023-02-22T00:33:25.526Z,29.70
2023-02-22T00:35:47.495Z,28.10
2023-02-22T00:38:07.838Z,27.60
2023-02-22T00:40:30.825Z,26.35
2023-02-22T00:45:12.158Z,27.80
2023-02-22T00:47:32.081Z,26.67
2023-02-22T00:49:51.903Z,27.08
2023-02-22T00:52:12.771Z,26.45
2023-02-22T00:54:32.279Z,27.88
2023-02-22T00:56:53.136Z,29.17
2023-02-22T00:59:13.294Z,29.05
2023-02-22T01:01:34.098Z,27.38
2023-02-22T01:03:54.256Z,28.15
2023-02-22T01:06:14.475Z,28.00
2023-02-22T01:08:34.094Z,29.33
2023-02-22T01:10:57.180Z,28.92
2023-02-22T01:13:19.226Z,28.98
2023-02-22T01:15:41.976Z,28.13
2023-02-22T01:18:02.282Z,27.70
2023-02-22T01:20:22.746Z,25.90
2023-02-22T01:22:45.715Z,26.50
2023-02-22T01:25:06.778Z,27.48
2023-02-22T01:27:27.395Z,26.23
2023-02-22T01:29:49.391Z,26.65
2023-02-22T01:32:11.252Z,27.02
2023-02-22T01:34:32.360Z,27.15
2023-02-22T01:36:51.976Z,27.05
2023-02-22T01:39:11.558Z,29.33
2023-02-22T01:41:32.728Z,28.08
2023-02-22T01:43:52.439Z,28.80
2023-02-22T01:46:26.662Z,27.60
2023-02-22T01:49:05.920Z,26.85
2023-02-22T01:51:31.797Z,26.27
2023-02-22T01:54:06.451Z,28.75
2023-02-22T01:56:30.306Z,27.90
2023-02-22T01:58:56.679Z,26.85
2023-02-22T02:01:19.411Z,26.13
2023-02-22T02:03:40.869Z,26.73
2023-02-22T02:06:05.805Z,27.65
2023-02-22T02:08:38.440Z,27.38
2023-02-22T02:10:59.866Z,26.90
2023-02-22T02:13:20.162Z,26.80
2023-02-22T02:15:39.998Z,27.67
2023-02-22T02:18:03.205Z,27.23
2023-02-22T02:20:38.351Z,26.77
2023-02-22T02:23:07.846Z,26.10
2023-02-22T02:25:30.619Z,25.73
2023-02-22T02:28:22.234Z,26.17
2023-02-22T02:31:12.910Z,25.90
2023-02-22T02:33:42.091Z,25.23
2023-02-22T02:36:34.235Z,27.35
2023-02-22T02:39:22.741Z,25.13
2023-02-22T02:41:46.461Z,26.88
2023-02-22T02:44:15.130Z,25.98
2023-02-22T02:47:00.350Z,27.13
2023-02-22T02:49:42.486Z,27.27
2023-02-22T02:52:05.072Z,26.02
2023-02-22T02:54:26.975Z,26.20
2023-02-22T02:56:47.623Z,25.25
2023-02-22T02:59:29.233Z,25.67
2023-02-22T03:02:10.923Z,24.42
2023-02-22T03:04:50.696Z,25.10
2023-02-22T03:07:27.195Z,26.23
2023-02-22T03:10:01.515Z,27.33
2023-02-22T03:12:54.172Z,27.73
2023-02-22T03:15:50.659Z,27.50
2023-02-22T03:18:56.941Z,26.60
2023-02-22T03:21:54.926Z,25.40
2023-02-22T03:24:35.870Z,23.75
2023-02-22T03:27:13.795Z,24.55
2023-02-22T03:29:37.253Z,23.77
2023-02-22T03:32:00.646Z,22.60
2023-02-22T03:36:51.172Z,23.40
2023-02-22T03:39:17.773Z,23.15
2023-02-22T03:41:40.921Z,22.73
2023-02-22T03:44:07.619Z,22.92
2023-02-22T03:46:29.511Z,26.75
2023-02-22T03:49:16.346Z,28.40
2023-02-22T03:51:38.980Z,28.90
2023-02-22T03:53:59.012Z,27.00
2023-02-22T03:56:25.124Z,27.92
2023-02-22T03:58:49.131Z,26.10
2023-02-22T04:01:09.511Z,25.58
2023-02-22T04:03:30.728Z,27.45
2023-02-22T04:05:50.868Z,24.08
2023-02-22T04:08:10.498Z,24.65
2023-02-22T04:10:30.129Z,29.15
2023-02-22T04:12:50.223Z,29.05
2023-02-22T04:15:13.642Z,27.85
2023-02-22T04:17:33.723Z,31.95
2023-02-22T04:19:54.160Z,28.27
2023-02-22T04:22:18.226Z,28.63
2023-02-22T04:24:38.468Z,29.20
2023-02-22T04:26:59.213Z,31.38
2023-02-22T04:29:18.900Z,27.42
2023-02-22T04:31:39.816Z,26.80
2023-02-22T04:34:00.666Z,25.38
2023-02-22T04:36:21.185Z,25.45
2023-02-22T04:38:41.297Z,25.05
2023-02-22T04:41:02.284Z,29.45
2023-02-22T04:43:22.498Z,28.77
2023-02-22T04:45:42.600Z,27.40
2023-02-22T04:48:02.753Z,26.70
2023-02-22T04:50:22.932Z,26.50
2023-02-22T04:52:43.748Z,28.27
2023-02-22T04:55:04.788Z,25.63
2023-02-22T04:57:24.648Z,25.75
2023-02-22T04:59:44.361Z,26.85
2023-02-22T05:02:05.577Z,28.52
2023-02-22T05:04:25.118Z,28.23
2023-02-22T05:06:45.093Z,28.67
2023-02-22T05:09:04.995Z,29.17
2023-02-22T05:11:24.782Z,32.20
2023-02-22T05:13:44.713Z,31.17
2023-02-22T05:16:05.179Z,29.00
2023-02-22T05:18:25.117Z,27.33
2023-02-22T05:20:44.801Z,27.98
2023-02-22T05:23:04.920Z,28.80
2023-02-22T05:25:25.421Z,28.88
2023-02-22T05:28:09.427Z,29.02
2023-02-22T05:30:35.199Z,29.15
2023-02-22T05:32:55.800Z,28.77
2023-02-22T05:35:16.797Z,27.92
2023-02-22T05:37:36.935Z,28.20
2023-02-22T05:39:57.078Z,27.75
2023-02-22T05:42:18.876Z,26.80
2023-02-22T05:44:38.850Z,25.70
2023-02-22T05:46:58.594Z,25.83
2023-02-22T05:49:18.293Z,24.27
2023-02-22T05:51:38.063Z,24.65
2023-02-22T05:53:58.568Z,24.85
2023-02-22T05:56:27.716Z,27.83
2023-02-22T05:58:47.254Z,34.85
2023-02-22T06:01:06.927Z,34.15
2023-02-22T06:03:26.621Z,36.13
2023-02-22T06:05:47.833Z,34.33
2023-02-22T06:08:07.829Z,29.77
2023-02-22T06:10:28.085Z,30.20
2023-02-22T06:12:48.441Z,30.05
2023-02-22T06:15:08.463Z,28.88
2023-02-22T06:17:29.744Z,30.83
2023-02-22T06:19:49.571Z,35.30
2023-02-22T06:22:19.689Z,32.00
2023-02-22T06:24:39.861Z,33.08
2023-02-22T06:27:01.841Z,29.75
2023-02-22T06:29:23.383Z,29.13
2023-02-22T06:31:43.208Z,28.50
2023-02-22T06:34:03.621Z,27.70
2023-02-22T06:36:23.500Z,29.45
2023-02-22T06:38:43.814Z,31.67
2023-02-22T06:41:03.703Z,30.15
2023-02-22T06:43:24.263Z,29.02
2023-02-22T06:45:44.373Z,31.27
2023-02-22T06:48:04.605Z,33.45
2023-02-22T06:50:28.218Z,32.38
2023-02-22T06:52:48.418Z,31.00
2023-02-22T06:55:07.989Z,33.20
2023-02-22T06:57:27.902Z,37.95
2023-02-22T06:59:48.032Z,33.50
2023-02-22T07:02:12.531Z,34.75
2023-02-22T07:04:32.322Z,34.35
2023-02-22T07:06:51.946Z,34.33
2023-02-22T07:09:12.335Z,33.47
2023-02-22T07:11:32.660Z,33.92
2023-02-22T07:13:54.776Z,35.00
2023-02-22T07:16:14.506Z,35.15
2023-02-22T07:18:34.720Z,38.47
2023-02-22T07:20:54.686Z,37.22
2023-02-22T07:23:15.408Z,37.67
2023-02-22T07:25:35.150Z,35.75
2023-02-22T07:27:55.495Z,34.83
2023-02-22T07:30:20.214Z,32.40
2023-02-22T07:32:42.484Z,32.42
2023-02-22T07:35:02.385Z,34.90
2023-02-22T07:37:23.802Z,37.47
2023-02-22T07:39:43.758Z,36.45
2023-02-22T07:42:04.384Z,35.35
2023-02-22T07:44:24.305Z,36.47
2023-02-22T07:46:49.886Z,37.90
2023-02-22T07:49:10.004Z,36.65
2023-02-22T07:51:30.205Z,36.10
2023-02-22T07:53:49.835Z,37.28
2023-02-22T07:56:10.323Z,36.17
2023-02-22T07:58:31.612Z,34.95
2023-02-22T08:00:51.795Z,34.63
2023-02-22T08:03:14.140Z,35.45
2023-02-22T08:05:36.459Z,33.53
2023-02-22T08:07:56.700Z,38.25
2023-02-22T08:10:17.759Z,37.72
2023-02-22T08:12:38.017Z,37.28
2023-02-22T08:14:57.697Z,41.83
2023-02-22T08:17:17.433Z,44.88
2023-02-22T08:19:38.548Z,38.83
2023-02-22T08:21:59.661Z,33.67
2023-02-22T08:24:19.759Z,37.08
2023-02-22T08:26:45.952Z,36.45
2023-02-22T08:29:06.157Z,34.97
2023-02-22T08:31:25.948Z,36.83
2023-02-22T08:33:49.347Z,37.20
2023-02-22T08:36:09.453Z,37.85
2023-02-22T08:38:32.026Z,36.05
2023-02-22T08:40:52.837Z,38.92
2023-02-22T08:43:13.195Z,51.60
2023-02-22T08:45:33.745Z,56.53
2023-02-22T08:47:53.739Z,39.00
2023-02-22T08:50:28.318Z,36.88
2023-02-22T08:52:51.510Z,36.58
2023-02-22T08:55:11.404Z,35.20
2023-02-22T08:57:33.267Z,37.80
2023-02-22T08:59:52.986Z,38.38
2023-02-22T09:02:15.631Z,40.53
2023-02-22T09:04:35.894Z,41.55
2023-02-22T09:06:56.149Z,39.58
2023-02-22T09:09:17.855Z,39.70
2023-02-22T09:12:01.834Z,37.43
2023-02-22T09:14:21.538Z,37.97
2023-02-22T09:16:44.832Z,36.28
2023-02-22T09:19:04.793Z,34.70
2023-02-22T09:21:26.059Z,35.67
2023-02-22T09:23:47.163Z,37.45
2023-02-22T09:26:11.094Z,34.90
2023-02-22T09:28:31.400Z,39.60
2023-02-22T09:30:52.577Z,37.30
2023-02-22T09:33:17.569Z,34.63
2023-02-22T09:35:41.499Z,36.67
2023-02-22T09:38:03.357Z,34.78
2023-02-22T09:40:25.304Z,33.93
2023-02-22T09:42:55.805Z,32.42
2023-02-22T09:45:26.002Z,31.67
2023-02-22T09:47:56.371Z,30.00
2023-02-22T09:50:21.967Z,30.95
2023-02-22T09:53:06.551Z,32.53
2023-02-22T09:55:30.369Z,32.75
2023-02-22T09:57:54.704Z,31.27
2023-02-22T10:00:20.936Z,33.00
2023-02-22T10:02:48.486Z,31.17
2023-02-22T10:05:26.816Z,34.75
2023-02-22T10:07:54.566Z,32.33
2023-02-22T10:10:17.553Z,28.90
2023-02-22T10:15:50.815Z,29.90
2023-02-22T10:18:22.600Z,29.67
2023-02-22T10:20:48.330Z,29.13
2023-02-22T10:23:17.656Z,30.50
2023-02-22T10:25:39.125Z,27.77
2023-02-22T10:28:12.358Z,26.13
2023-02-22T10:30:41.677Z,26.50
2023-02-22T10:33:18.233Z,27.08
2023-02-22T10:35:40.539Z,24.70
2023-02-22T10:38:12.159Z,25.33
2023-02-22T10:40:32.131Z,27.17
2023-02-22T10:42:52.151Z,25.92
2023-02-22T10:45:26.043Z,25.92
2023-02-22T10:47:47.458Z,24.23
2023-02-22T10:50:07.513Z,26.27
2023-02-22T10:52:30.983Z,22.15
2023-02-22T10:54:58.834Z,17.65
2023-02-22T10:57:31.919Z,21.03
2023-02-22T10:59:52.811Z,18.60
2023-02-22T11:02:41.926Z,17.02
2023-02-22T11:05:04.504Z,16.92
2023-02-22T11:07:33.226Z,18.35
2023-02-22T11:09:55.008Z,19.33
2023-02-22T11:12:25.571Z,20.50
2023-02-22T11:14:45.832Z,18.13
2023-02-22T11:17:12.369Z,17.35
2023-02-22T11:19:33.603Z,19.27
2023-02-22T11:22:09.995Z,17.50
2023-02-22T11:24:43.539Z,18.48
2023-02-22T11:27:07.174Z,16.15
2023-02-22T11:29:35.740Z,17.05
2023-02-22T11:31:56.445Z,15.48
2023-02-22T11:34:38.197Z,17.35
2023-02-22T11:37:21.682Z,17.33
2023-02-22T11:39:43.125Z,16.80
2023-02-22T11:42:24.892Z,17.13
2023-02-22T11:44:44.939Z,17.77
2023-02-22T11:47:11.950Z,17.25
2023-02-22T11:49:35.078Z,14.52
2023-02-22T11:54:51.951Z,20.30
2023-02-22T11:57:27.074Z,16.38
2023-02-22T12:00:15.543Z,14.10
2023-02-22T12:02:56.558Z,9.80
2023-02-22T12:05:25.991Z,11.57
2023-02-22T12:08:20.341Z,13.35
2023-02-22T12:10:49.463Z,15.45
2023-02-22T12:13:39.546Z,15.27
2023-02-22T12:16:31.511Z,14.48
2023-02-22T12:19:21.322Z,13.98
2023-02-22T12:21:52.287Z,12.52
2023-02-22T12:24:25.302Z,12.27
2023-02-22T12:26:53.560Z,13.55
2023-02-22T12:30:10.496Z,11.02
2023-02-22T12:32:52.423Z,10.57
2023-02-22T12:35:16.645Z,9.43
2023-02-22T12:38:03.955Z,5.50
2023-02-22T12:40:44.427Z,5.90
2023-02-22T12:43:25.556Z,6.57
2023-02-22T12:45:56.899Z,6.20
2023-02-22T12:48:35.442Z,5.40
2023-02-22T12:51:06.614Z,5.35
2023-02-22T12:53:36.458Z,7.22
2023-02-22T12:56:09.692Z,8.10
2023-02-22T13:01:01.780Z,6.32
2023-02-22T13:03:30.046Z,6.55
2023-02-22T13:06:11.841Z,5.88
2023-02-22T13:08:49.025Z,5.55
2023-02-22T13:11:45.447Z,5.60
2023-02-22T13:14:14.461Z,6.38
2023-02-22T13:17:01.220Z,7.22
2023-02-22T13:19:47.595Z,6.38
2023-02-22T13:22:16.822Z,6.32
2023-02-22T13:24:45.250Z,6.65
2023-02-22T13:27:39.908Z,6.53
2023-02-22T13:30:01.107Z,5.68
2023-02-22T13:32:54.815Z,7.35
2023-02-22T13:35:20.817Z,9.35
2023-02-22T13:38:16.347Z,8.23
2023-02-22T13:40:46.099Z,6.30
2023-02-22T13:43:29.664Z,6.40
2023-02-22T13:48:56.156Z,8.15
2023-02-22T13:51:35.696Z,6.60
2023-02-22T13:54:01.706Z,6.93
2023-02-22T13:56:25.946Z,6.65
2023-02-22T13:59:04.576Z,6.53
2023-02-22T14:01:48.061Z,7.10
2023-02-22T14:04:19.920Z,6.68
2023-02-22T14:06:40.886Z,6.88
2023-02-22T14:09:07.115Z,7.55
2023-02-22T14:11:33.030Z,7.88
2023-02-22T14:13:54.977Z,7.50
2023-02-22T14:16:20.983Z,6.53
2023-02-22T14:18:49.392Z,7.55
2023-02-22T14:21:10.566Z,7.78
2023-02-22T14:23:44.896Z,8.02
2023-02-22T14:26:31.324Z,10.00
2023-02-22T14:29:07.089Z,8.98
2023-02-22T14:31:37.497Z,7.65
2023-02-22T14:34:07.042Z,9.98
2023-02-22T14:36:55.981Z,9.38
2023-02-22T14:39:21.536Z,8.95
2023-02-22T14:41:56.721Z,8.02
2023-02-22T14:44:23.274Z,8.70
2023-02-22T14:46:49.295Z,8.30
2023-02-22T14:49:18.211Z,9.05
2023-02-22T14:51:43.610Z,8.15
2023-02-22T14:54:29.087Z,9.80
2023-02-22T14:57:20.938Z,10.00
2023-02-22T15:00:00.749Z,7.38
2023-02-22T15:02:25.168Z,8.45
2023-02-22T15:04:53.454Z,8.45
2023-02-22T15:07:26.950Z,9.20
2023-02-22T15:09:47.789Z,8.38
2023-02-22T15:12:08.018Z,7.60
2023-02-22T15:14:29.821Z,7.20
2023-02-22T15:16:54.105Z,7.80
2023-02-22T15:19:21.340Z,7.43
2023-02-22T15:21:45.511Z,6.40
2023-02-22T15:24:07.205Z,6.75
2023-02-22T15:26:44.203Z,6.30
2023-02-22T15:29:18.082Z,6.70
2023-02-22T15:31:39.132Z,8.05
2023-02-22T15:34:16.195Z,6.53
2023-02-22T15:36:36.034Z,7.05
2023-02-22T15:38:56.329Z,7.72
2023-02-22T15:41:31.593Z,6.95
2023-02-22T15:44:23.631Z,6.50
2023-02-22T15:46:44.446Z,6.43
2023-02-22T15:49:14.828Z,7.43
2023-02-22T15:51:37.738Z,7.78
2023-02-22T15:54:06.795Z,8.57
2023-02-22T15:56:30.263Z,9.60
2023-02-22T15:58:50.136Z,7.53
2023-02-22T16:01:15.863Z,8.55
2023-02-22T16:03:56.658Z,7.93
2023-02-22T16:06:27.784Z,8.15
2023-02-22T16:08:55.515Z,7.50
2023-02-22T16:11:33.793Z,9.93
2023-02-22T16:13:54.442Z,8.88
2023-02-22T16:16:19.999Z,8.13
2023-02-22T16:18:40.690Z,9.20
2023-02-22T16:21:02.315Z,7.63
2023-02-22T16:23:25.272Z,9.27
2023-02-22T16:28:30.165Z,8.60
2023-02-22T16:30:57.517Z,8.30
2023-02-22T16:33:17.693Z,7.10
2023-02-22T16:35:37.314Z,8.60
2023-02-22T16:37:58.647Z,7.13
2023-02-22T16:40:23.221Z,6.82
2023-02-22T16:42:42.825Z,7.72
2023-02-22T16:45:02.560Z,8.80
2023-02-22T16:47:22.599Z,9.50
2023-02-22T16:49:42.098Z,15.23
2023-02-22T16:52:06.000Z,11.25
2023-02-22T16:54:29.521Z,9.48
2023-02-22T16:56:50.452Z,7.70
2023-02-22T16:59:16.010Z,8.57
2023-02-22T17:01:36.239Z,7.28
2023-02-22T17:03:56.964Z,10.15
2023-02-22T17:06:17.164Z,9.80
2023-02-22T17:08:38.699Z,10.27
2023-02-22T17:10:59.996Z,10.13
2023-02-22T17:13:26.634Z,11.00
2023-02-22T17:15:47.851Z,10.65
2023-02-22T17:18:16.146Z,29.20
2023-02-22T17:20:35.818Z,23.23
2023-02-22T17:23:04.208Z,16.25
2023-02-22T17:25:27.719Z,12.32
2023-02-22T17:27:47.330Z,9.02
2023-02-22T17:30:12.840Z,10.27
2023-02-22T17:32:32.729Z,9.98
2023-02-22T17:34:52.630Z,10.93
2023-02-22T17:37:12.499Z,9.32
2023-02-22T17:39:31.995Z,8.68
2023-02-22T17:41:56.810Z,8.57
2023-02-22T17:44:16.828Z,9.43
2023-02-22T17:46:40.081Z,9.23
2023-02-22T17:48:59.906Z,17.40
2023-02-22T17:51:21.782Z,15.15
2023-02-22T17:53:41.425Z,13.48
2023-02-22T17:56:09.701Z,15.57
2023-02-22T17:58:30.290Z,12.10
2023-02-22T18:00:50.527Z,7.88
2023-02-22T18:03:15.583Z,8.00
2023-02-22T18:05:48.195Z,10.10
2023-02-22T18:08:07.896Z,8.02
2023-02-22T18:10:27.481Z,8.30
2023-02-22T18:12:48.255Z,9.27
2023-02-22T18:15:16.591Z,8.35
2023-02-22T18:17:37.471Z,9.38
2023-02-22T18:19:57.984Z,9.57
2023-02-22T18:22:17.710Z,9.98
2023-02-22T18:24:37.738Z,8.20
2023-02-22T18:26:57.960Z,8.45
2023-02-22T18:29:17.833Z,8.50
2023-02-22T18:31:39.604Z,13.10
2023-02-22T18:33:59.553Z,20.40
2023-02-22T18:36:21.900Z,11.32
2023-02-22T18:38:42.765Z,9.63
2023-02-22T18:41:05.587Z,8.55
2023-02-22T18:45:47.262Z,10.25
2023-02-22T18:48:07.717Z,7.85
2023-02-22T18:50:28.213Z,8.50
2023-02-22T18:52:48.011Z,9.25
2023-02-22T18:55:08.306Z,10.55
2023-02-22T18:57:29.531Z,11.02
2023-02-22T18:59:49.246Z,10.57
2023-02-22T19:02:16.776Z,8.85
2023-02-22T19:04:36.634Z,18.88
2023-02-22T19:06:56.970Z,13.35
2023-02-22T19:09:17.323Z,20.45
2023-02-22T19:11:39.444Z,17.98
2023-02-22T19:13:59.969Z,20.52
2023-02-22T19:16:21.623Z,19.98
2023-02-22T19:18:43.384Z,20.95
2023-02-22T19:21:08.033Z,18.23
2023-02-22T19:23:28.173Z,17.88
2023-02-22T19:25:48.474Z,21.98
2023-02-22T19:28:08.664Z,22.38
2023-02-22T19:30:28.758Z,22.42
2023-02-22T19:32:48.441Z,21.30
2023-02-22T19:35:08.655Z,18.95
2023-02-22T19:37:33.429Z,19.08
2023-02-22T19:39:55.485Z,19.70
2023-02-22T19:42:15.567Z,18.73
2023-02-22T19:44:36.594Z,18.50
2023-02-22T19:46:56.907Z,17.23
2023-02-22T19:49:17.214Z,15.07
2023-02-22T19:51:38.517Z,15.98
2023-02-22T19:54:01.892Z,18.63
2023-02-22T19:56:30.215Z,35.10
2023-02-22T19:58:50.077Z,32.22
2023-02-22T20:01:11.676Z,34.80
2023-02-22T20:03:34.255Z,35.70
2023-02-22T20:05:57.749Z,27.90
2023-02-22T20:08:18.038Z,23.77
2023-02-22T20:10:38.078Z,23.58
2023-02-22T20:12:58.412Z,25.05
2023-02-22T20:15:18.648Z,24.30
2023-02-22T20:17:40.971Z,15.25
2023-02-22T20:20:00.828Z,13.18
2023-02-22T20:22:22.402Z,15.20
2023-02-22T20:24:42.375Z,12.02
2023-02-22T20:27:02.748Z,11.45
2023-02-22T20:29:29.111Z,22.13
2023-02-22T20:31:55.790Z,28.20
2023-02-22T20:34:16.041Z,31.92
2023-02-22T20:36:40.763Z,33.13
2023-02-22T20:39:01.237Z,27.15
2023-02-22T20:41:32.900Z,35.45
2023-02-22T20:43:54.668Z,34.85
2023-02-22T20:46:14.537Z,59.25
2023-02-22T20:48:34.329Z,52.83
2023-02-22T20:50:54.124Z,49.25
2023-02-22T20:53:14.138Z,36.33
2023-02-22T20:55:34.144Z,29.10
2023-02-22T20:57:54.381Z,26.92
2023-02-22T21:00:14.585Z,20.73
2023-02-22T21:02:34.864Z,23.45
2023-02-22T21:04:54.763Z,24.42
2023-02-22T21:07:14.564Z,29.55
2023-02-22T21:09:34.597Z,27.27
2023-02-22T21:11:54.387Z,27.85
2023-02-22T21:14:18.033Z,22.73
2023-02-22T21:19:00.912Z,19.20
2023-02-22T21:21:21.635Z,16.90
2023-02-22T21:23:41.924Z,18.65
2023-02-22T21:26:01.734Z,21.65
2023-02-22T21:28:22.312Z,18.50
2023-02-22T21:30:44.407Z,14.13
2023-02-22T21:33:05.971Z,15.07
2023-02-22T21:35:25.906Z,14.98
2023-02-22T21:37:45.731Z,13.18
2023-02-22T21:40:10.770Z,12.80
2023-02-22T21:42:32.909Z,11.60
2023-02-22T21:44:55.490Z,12.67
2023-02-22T21:47:15.439Z,14.88
2023-02-22T21:49:35.281Z,16.05
2023-02-22T21:51:55.777Z,15.45
2023-02-22T21:54:16.246Z,16.38
2023-02-22T21:56:40.167Z,18.00
2023-02-22T21:59:12.989Z,23.45
2023-02-22T22:01:36.152Z,20.17
2023-02-22T22:06:20.329Z,16.33
2023-02-22T22:08:42.700Z,17.27
2023-02-22T22:11:05.775Z,17.67
2023-02-22T22:13:27.414Z,19.30
2023-02-22T22:15:49.030Z,19.35
2023-02-22T22:18:09.141Z,21.17
2023-02-22T22:20:28.882Z,22.02
2023-02-22T22:22:48.512Z,23.10
2023-02-22T22:25:11.175Z,24.80
2023-02-22T22:29:56.454Z,30.15
2023-02-22T22:32:20.024Z,18.15
2023-02-22T22:34:41.835Z,16.38
2023-02-22T22:37:02.652Z,16.67
2023-02-22T22:39:23.507Z,17.48
2023-02-22T22:41:44.518Z,17.40
2023-02-22T22:44:05.463Z,16.65
2023-02-22T22:46:25.394Z,16.42
2023-02-22T22:48:46.250Z,16.35
2023-02-22T22:51:09.221Z,15.65
2023-02-22T22:53:30.612Z,15.13
2023-02-22T22:55:52.264Z,14.40
2023-02-22T22:58:12.553Z,14.70
2023-02-22T23:00:36.754Z,14.02
2023-02-22T23:02:56.711Z,15.85
2023-02-22T23:05:16.645Z,17.98
2023-02-22T23:07:37.204Z,18.67
2023-02-22T23:09:57.439Z,18.67
2023-02-22T23:12:17.470Z,18.30
2023-02-22T23:14:43.220Z,20.35
2023-02-22T23:17:04.969Z,22.98
2023-02-22T23:19:25.222Z,20.80
2023-02-22T23:21:48.886Z,18.92
2023-02-22T23:24:10.136Z,19.42
2023-02-22T23:26:32.006Z,16.75
2023-02-22T23:28:58.489Z,17.23
2023-02-22T23:31:18.608Z,17.85
2023-02-22T23:33:39.434Z,14.85
2023-02-22T23:36:00.359Z,14.98
2023-02-22T23:38:20.406Z,14.50
2023-02-22T23:40:40.006Z,15.38
2023-02-22T23:43:03.388Z,18.80
2023-02-22T23:45:23.974Z,16.92
2023-02-22T23:47:49.873Z,14.35
2023-02-22T23:50:12.919Z,14.00
2023-02-22T23:52:32.524Z,15.27
2023-02-22T23:54:53.281Z,17.35
2023-02-22T23:57:16.861Z,19.00
2023-02-22T23:59:39.608Z,19.60
